Time;durP1;ratioP1;P1;durP2;ratioP2;P2;SDS_P1;SDS_P2;PMS_P1;PMS_P2;Temp;Humidity;BMP_temperature;BMP_pressure;BME280_temperature;BME280_humidity;BME280_pressure;Samples;Min_cycle;Max_cycle;Signal;HPM_P1;HPM_P2
2021/12/01 00:01:46;;;;;;;4.78;2.95;;;;;;;2.89;85.20;98470.00;5002367;28;20511;-64
2021/12/01 00:04:15;;;;;;;4.50;2.58;;;;;;;2.93;85.40;98486.84;5003263;28;21893;-65
2021/12/01 00:06:45;;;;;;;4.10;2.20;;;;;;;2.90;85.93;98469.19;5001962;28;20038;-64
2021/12/01 00:09:14;;;;;;;4.97;2.80;;;;;;;2.95;85.41;98475.13;5002935;28;20053;-64
2021/12/01 00:11:45;;;;;;;3.75;2.33;;;;;;;2.89;85.21;98480.06;5001147;28;20117;-65
2021/12/01 00:14:14;;;;;;;4.05;2.72;;;;;;;2.94;85.34;98488.53;5001773;28;20120;-64
2021/12/01 00:16:43;;;;;;;5.75;2.45;;;;;;;3.02;85.51;98481.91;5002050;28;20399;-64
2021/12/01 00:19:12;;;;;;;4.65;2.67;;;;;;;3.01;85.35;98485.25;5001933;28;20050;-68
2021/12/01 00:21:42;;;;;;;4.18;2.40;;;;;;;2.92;85.40;98470.88;4999888;28;20124;-65
2021/12/01 00:24:11;;;;;;;5.38;2.60;;;;;;;2.93;85.48;98481.81;5001794;28;20067;-63
2021/12/01 00:26:40;;;;;;;3.85;2.00;;;;;;;2.99;85.67;98486.91;5002599;28;20045;-64
2021/12/01 00:29:11;;;;;;;3.55;2.05;;;;;;;3.06;85.48;98476.91;4998384;28;20048;-65
2021/12/01 00:31:41;;;;;;;3.88;1.67;;;;;;;3.16;85.66;98485.38;5000974;28;23266;-67
2021/12/01 00:34:11;;;;;;;2.83;1.50;;;;;;;3.23;85.96;98477.06;5003332;28;20038;-64
2021/12/01 00:36:40;;;;;;;2.88;1.50;;;;;;;3.26;86.07;98497.25;5005068;28;20387;-63
2021/12/01 00:39:10;;;;;;;2.40;1.50;;;;;;;3.25;85.63;98503.97;4998861;28;20133;-64
2021/12/01 00:41:39;;;;;;;3.60;1.95;;;;;;;3.28;86.20;98515.75;5000055;28;20056;-64
2021/12/01 00:44:10;;;;;;;3.53;2.10;;;;;;;3.35;86.21;98525.91;5001020;28;20511;-64
2021/12/01 00:46:42;;;;;;;4.93;2.22;;;;;;;3.44;85.87;98521.75;5004754;28;20326;-65
2021/12/01 00:49:12;;;;;;;2.60;1.50;;;;;;;3.44;85.46;98531.84;5001309;28;20109;-66
2021/12/01 00:51:41;;;;;;;2.83;1.50;;;;;;;3.45;85.56;98539.44;5000422;28;20055;-67
2021/12/01 00:54:11;;;;;;;3.05;2.10;;;;;;;3.55;85.42;98545.41;5001831;28;20064;-64
2021/12/01 00:56:40;;;;;;;2.75;1.70;;;;;;;3.56;85.61;98540.38;5006167;28;20081;-64
2021/12/01 00:59:09;;;;;;;2.70;1.73;;;;;;;3.60;85.23;98539.56;5008487;28;20044;-64
2021/12/01 01:01:40;;;;;;;4.03;1.67;;;;;;;3.49;84.57;98543.69;5006315;28;20045;-64
2021/12/01 01:04:10;;;;;;;3.20;1.80;;;;;;;3.42;85.04;98546.97;5004492;28;20069;-64
2021/12/01 01:06:41;;;;;;;3.08;1.67;;;;;;;3.43;84.74;98555.38;5005547;28;20038;-65
2021/12/01 01:09:11;;;;;;;4.15;2.30;;;;;;;3.43;85.62;98553.72;5001909;28;20081;-65
2021/12/01 01:17:07;;;;;;;4.15;2.08;;;;;;;3.34;84.83;98571.25;5004833;28;20037;-65
2021/12/01 01:19:38;;;;;;;4.03;2.55;;;;;;;3.36;85.34;98564.56;5004524;28;20042;-65
2021/12/01 01:22:09;;;;;;;5.25;2.00;;;;;;;3.32;85.37;98580.47;5002906;28;21921;-64
2021/12/01 01:24:39;;;;;;;5.35;2.08;;;;;;;3.36;85.41;98574.63;5004439;28;20042;-65
2021/12/01 01:27:08;;;;;;;2.53;1.40;;;;;;;3.37;85.11;98571.28;5015754;28;20042;-65
2021/12/01 01:29:37;;;;;;;;;;;;;;;3.41;85.42;98572.19;5014220;28;20041;-65
2021/12/01 01:32:09;;;;;;;2.80;1.23;;;;;;;3.46;84.59;98566.34;5011304;28;19921;-65
2021/12/01 01:34:42;;;;;;;2.03;1.20;;;;;;;3.53;85.91;98578.16;5013100;28;20038;-64
2021/12/01 01:37:14;;;;;;;3.33;1.80;;;;;;;3.62;84.91;98585.84;5016055;28;20093;-65
2021/12/01 01:39:47;;;;;;;1.98;1.15;;;;;;;3.66;84.99;98579.97;5014576;28;20046;-65
2021/12/01 01:42:19;;;;;;;4.43;1.50;;;;;;;3.70;85.61;98581.69;5011951;28;20096;-65
2021/12/01 01:44:48;;;;;;;1.98;1.30;;;;;;;3.68;84.94;98587.56;5013980;28;20042;-65
2021/12/01 01:47:20;;;;;;;2.58;1.50;;;;;;;3.72;85.22;98605.25;5012755;28;20042;-65
2021/12/01 01:49:54;;;;;;;2.05;1.27;;;;;;;3.79;85.04;98596.91;5012115;28;20473;-65
2021/12/01 01:52:27;;;;;;;2.75;1.60;;;;;;;3.79;85.09;98594.38;5013705;28;20046;-65
2021/12/01 01:55:00;;;;;;;2.50;1.33;;;;;;;3.85;85.55;98591.91;5011758;28;20049;-64
2021/12/01 01:57:32;;;;;;;2.45;1.58;;;;;;;3.84;85.50;98599.47;5016103;28;20063;-65
2021/12/01 02:00:08;;;;;;;2.13;1.30;;;;;;;3.75;85.33;98600.22;5014787;28;20053;-65
2021/12/01 02:02:44;;;;;;;2.43;1.50;;;;;;;3.68;85.20;98603.53;5013535;28;20077;-64
2021/12/01 02:05:17;;;;;;;2.40;1.38;;;;;;;3.70;85.31;98606.91;5012744;28;20306;-65
2021/12/01 02:07:47;;;;;;;2.65;1.50;;;;;;;3.77;85.47;98598.56;5016015;28;20056;-65
2021/12/01 02:10:19;;;;;;;3.25;1.88;;;;;;;3.82;84.92;98607.03;5014602;28;20484;-66
2021/12/01 02:12:49;;;;;;;2.15;1.40;;;;;;;3.85;84.47;98607.06;5006850;28;20033;-66
2021/12/01 02:15:18;;;;;;;2.78;1.40;;;;;;;3.94;84.84;98617.22;5012252;28;20045;-66
2021/12/01 02:17:50;;;;;;;2.47;1.40;;;;;;;3.90;84.34;98615.50;5013716;28;20069;-66
2021/12/01 02:20:23;;;;;;;2.03;1.38;;;;;;;3.84;84.37;98615.44;5013770;28;20484;-66
2021/12/01 02:22:59;;;;;;;2.42;1.30;;;;;;;3.75;84.89;98619.56;5013369;28;20053;-66
2021/12/01 02:25:29;;;;;;;3.22;1.52;;;;;;;3.74;85.04;98628.81;5013115;28;20057;-66
2021/12/01 02:27:58;;;;;;;2.38;1.50;;;;;;;3.73;84.26;98627.13;5011090;28;20046;-66
2021/12/01 02:30:27;;;;;;;3.00;1.30;;;;;;;3.70;84.28;98632.13;5014227;28;20500;-66
2021/12/01 02:32:57;;;;;;;2.35;1.30;;;;;;;3.68;84.18;98633.81;5014469;28;20042;-67
2021/12/01 02:35:30;;;;;;;3.90;1.55;;;;;;;3.72;84.47;98634.69;5011720;28;20046;-67
2021/12/01 02:38:00;;;;;;;3.50;1.67;;;;;;;3.81;84.42;98630.59;5013442;28;20053;-66
2021/12/01 02:40:29;;;;;;;;;;;;;;;3.84;84.06;98633.09;5013624;28;20403;-66
2021/12/01 02:42:58;;;;;;;2.58;1.50;;;;;;;3.83;84.18;98639.00;5013965;28;20101;-68
2021/12/01 02:45:29;;;;;;;4.88;1.50;;;;;;;3.84;84.46;98620.50;5012139;28;20145;-67
2021/12/01 02:47:58;;;;;;;3.00;1.50;;;;;;;3.89;84.37;98639.03;5011377;28;20038;-66
2021/12/01 02:50:28;;;;;;;2.33;1.30;;;;;;;3.90;84.16;98630.66;5011383;28;20086;-66
2021/12/01 02:53:04;;;;;;;4.03;1.48;;;;;;;3.90;83.82;98624.75;5012216;28;20049;-66
2021/12/01 02:55:40;;;;;;;2.42;1.60;;;;;;;3.90;84.08;98629.81;5014126;28;20496;-66
2021/12/01 02:58:10;;;;;;;2.30;1.40;;;;;;;3.90;84.25;98623.09;5014974;28;20129;-66
2021/12/01 03:00:42;;;;;;;1.98;1.13;;;;;;;3.90;83.91;98638.22;5010502;28;20120;-66
2021/12/01 03:03:13;;;;;;;2.30;1.20;;;;;;;3.93;83.55;98644.97;5012500;28;20069;-66
2021/12/01 03:05:48;;;;;;;2.33;1.27;;;;;;;3.92;83.52;98644.13;5011709;28;20041;-67
2021/12/01 03:08:22;;;;;;;2.53;1.20;;;;;;;3.94;83.66;98644.97;5010030;28;20042;-66
2021/12/01 03:10:54;;;;;;;2.88;1.33;;;;;;;3.92;83.37;98650.84;5012608;28;20447;-66
2021/12/01 03:13:27;;;;;;;2.65;1.33;;;;;;;3.89;83.90;98653.34;5013345;28;20046;-66
2021/12/01 03:15:57;;;;;;;2.75;1.35;;;;;;;3.93;84.25;98660.97;5008753;28;20108;-66
2021/12/01 03:18:30;;;;;;;2.22;1.20;;;;;;;4.00;83.25;98659.34;5012099;28;20046;-66
2021/12/01 03:21:00;;;;;;;2.70;1.45;;;;;;;4.03;83.88;98665.25;5012910;28;20431;-66
2021/12/01 03:23:34;;;;;;;3.83;1.67;;;;;;;4.05;83.47;98676.19;5011736;28;20050;-67
2021/12/01 03:26:07;;;;;;;2.00;1.30;;;;;;;4.07;83.18;98668.66;5011873;28;20042;-66
2021/12/01 03:28:40;;;;;;;1.52;1.20;;;;;;;4.08;83.21;98681.28;5012659;28;20045;-67
2021/12/01 03:31:12;;;;;;;2.28;1.15;;;;;;;4.04;83.27;98678.72;5012504;28;20042;-67
2021/12/01 03:33:45;;;;;;;2.75;1.38;;;;;;;3.97;83.49;98672.78;5012536;28;20042;-67
2021/12/01 03:36:17;;;;;;;2.40;1.20;;;;;;;3.95;82.78;98668.53;5010056;28;20092;-67
2021/12/01 03:38:51;;;;;;;3.65;1.45;;;;;;;3.90;83.00;98676.09;5012675;28;20100;-67
2021/12/01 03:41:20;;;;;;;3.30;1.27;;;;;;;3.87;83.32;98675.19;5004483;28;20050;-67
2021/12/01 03:43:53;;;;;;;2.70;1.20;;;;;;;3.81;83.34;98670.94;5012957;28;20069;-67
2021/12/01 03:46:23;;;;;;;1.30;0.90;;;;;;;3.84;82.85;98678.53;5010228;28;20133;-67
2021/12/01 03:48:59;;;;;;;3.58;1.27;;;;;;;3.94;83.03;98670.22;5009541;28;20037;-68
2021/12/01 03:51:31;;;;;;;1.98;1.30;;;;;;;3.92;82.83;98663.47;5003441;28;20050;-67
2021/12/01 03:54:06;;;;;;;2.80;1.40;;;;;;;3.82;83.08;98660.00;5011073;28;20472;-67
2021/12/01 03:56:36;;;;;;;2.35;1.30;;;;;;;3.78;82.84;98655.78;5009734;28;20034;-67
2021/12/01 03:59:08;;;;;;;3.25;1.50;;;;;;;3.86;83.00;98659.19;5011900;28;20499;-67
2021/12/01 04:01:38;;;;;;;3.92;1.63;;;;;;;3.90;83.04;98645.78;5012714;28;20471;-68
2021/12/01 04:04:08;;;;;;;2.72;1.38;;;;;;;3.88;82.63;98637.38;5003940;28;20258;-68
2021/12/01 04:06:37;;;;;;;3.10;1.60;;;;;;;3.83;82.70;98644.06;5007757;28;20129;-66
2021/12/01 04:09:08;;;;;;;2.35;1.30;;;;;;;3.76;82.65;98632.22;5009669;28;20042;-67
2021/12/01 04:11:41;;;;;;;3.38;1.67;;;;;;;3.69;82.73;98634.66;5011932;28;20542;-68
2021/12/01 04:14:11;;;;;;;3.17;1.58;;;;;;;3.73;83.52;98622.09;5007928;28;20388;-68
2021/12/01 04:16:40;;;;;;;3.70;1.35;;;;;;;3.74;83.42;98608.63;5010120;28;20053;-68
2021/12/01 04:19:09;;;;;;;;;;;;;;;3.77;83.71;98603.59;5011063;28;20491;-68
2021/12/01 04:21:42;;;;;;;1.90;1.25;;;;;;;3.82;83.40;98601.97;5013048;28;19967;-67
2021/12/01 04:24:13;;;;;;;1.83;1.30;;;;;;;3.83;83.71;98597.78;5004556;28;20057;-67
2021/12/01 04:26:42;;;;;;;2.97;1.40;;;;;;;3.86;83.54;98603.69;4994101;28;20500;-67
2021/12/01 04:29:11;;;;;;;2.10;1.10;;;;;;;3.87;83.12;98610.44;4994010;28;20042;-68
2021/12/01 04:31:41;;;;;;;1.73;1.15;;;;;;;3.91;83.19;98622.22;4997402;28;20508;-68
2021/12/01 04:34:10;;;;;;;2.70;1.30;;;;;;;3.93;83.01;98623.13;5006454;28;20503;-67
2021/12/01 04:36:41;;;;;;;2.37;1.37;;;;;;;3.92;82.69;98626.47;5015230;28;20042;-68
2021/12/01 04:39:15;;;;;;;7.20;1.67;;;;;;;3.90;82.76;98639.91;4997967;28;20288;-67
2021/12/01 04:41:51;;;;;;;2.40;1.40;;;;;;;3.90;82.89;98629.81;5016006;28;20046;-67
2021/12/01 04:44:22;;;;;;;3.22;1.33;;;;;;;3.91;82.95;98622.22;5017412;28;20080;-68
2021/12/01 04:47:09;;;;;;;3.60;1.42;;;;;;;3.89;82.50;98613.81;5015583;28;20128;-67
2021/12/01 04:49:39;;;;;;;1.95;1.27;;;;;;;3.92;82.45;98631.50;4963176;28;20055;-67
2021/12/01 04:52:12;;;;;;;3.15;1.33;;;;;;;3.86;83.01;98628.91;4956728;28;20055;-69
2021/12/01 04:54:49;;;;;;;2.28;1.30;;;;;;;3.86;82.15;98633.13;4970797;28;20147;-68
2021/12/01 04:57:18;;;;;;;2.60;1.30;;;;;;;3.99;82.71;98628.19;4972825;28;20043;-69
2021/12/01 04:59:48;;;;;;;2.53;1.42;;;;;;;4.07;82.38;98630.78;4972773;28;20090;-69
2021/12/01 05:02:20;;;;;;;1.98;1.27;;;;;;;4.12;81.99;98630.81;4973188;28;20039;-70
2021/12/01 05:04:50;;;;;;;2.47;1.35;;;;;;;4.07;81.85;98640.88;4973759;28;20070;-68
2021/12/01 05:07:19;;;;;;;1.58;1.13;;;;;;;4.02;81.72;98640.84;4971769;28;20126;-68
2021/12/01 05:09:50;;;;;;;2.42;1.20;;;;;;;3.98;81.96;98638.28;4974698;28;20058;-68
2021/12/01 05:12:23;;;;;;;3.20;1.23;;;;;;;3.79;81.33;98639.78;4975768;28;20062;-69
2021/12/01 05:14:53;;;;;;;2.25;1.30;;;;;;;3.65;81.29;98648.91;4975462;28;20437;-69
2021/12/01 05:17:25;;;;;;;2.78;1.23;;;;;;;3.50;81.28;98651.28;4976109;28;20058;-69
2021/12/01 05:19:55;;;;;;;3.13;1.40;;;;;;;3.56;81.99;98658.91;4972001;28;20058;-67
2021/12/01 05:22:30;;;;;;;1.55;1.20;;;;;;;3.52;81.69;98656.34;4975596;28;20049;-68
2021/12/01 05:25:02;;;;;;;2.72;1.40;;;;;;;3.35;81.18;98657.03;4975636;28;20051;-68
2021/12/01 05:27:32;;;;;;;2.38;1.30;;;;;;;3.41;81.16;98658.75;5006016;28;20050;-69
2021/12/01 05:30:01;;;;;;;2.72;1.38;;;;;;;3.48;81.29;98655.44;5015712;28;20108;-69
2021/12/01 05:32:31;;;;;;;2.25;1.50;;;;;;;3.38;80.72;98658.72;5012024;28;20056;-69
2021/12/01 05:35:04;;;;;;;4.05;1.10;;;;;;;3.29;81.96;98648.50;5000005;28;20046;-69
2021/12/01 05:37:37;;;;;;;2.03;1.38;;;;;;;3.23;81.01;98643.41;5008133;28;20049;-69
2021/12/01 05:40:12;;;;;;;4.45;1.88;;;;;;;3.25;81.42;98654.38;5009934;28;20060;-69
2021/12/01 05:42:44;;;;;;;4.75;2.17;;;;;;;3.30;81.96;98660.31;5015850;28;20129;-69
2021/12/01 05:45:17;;;;;;;3.42;1.88;;;;;;;3.43;81.16;98666.34;5013886;28;20034;-69
2021/12/01 05:47:49;;;;;;;3.38;1.75;;;;;;;3.47;81.25;98668.06;5013083;28;20544;-69
2021/12/01 05:50:24;;;;;;;3.63;1.92;;;;;;;3.45;81.49;98670.56;5010638;28;20046;-70
2021/12/01 05:52:53;;;;;;;5.40;1.98;;;;;;;3.48;81.12;98670.59;5014844;28;20050;-70
2021/12/01 05:55:27;;;;;;;3.58;1.67;;;;;;;3.42;81.31;98670.53;5014740;28;20173;-70
2021/12/01 05:57:56;;;;;;;3.10;1.52;;;;;;;3.35;81.55;98669.63;5011570;28;20046;-70
2021/12/01 06:00:28;;;;;;;6.22;1.90;;;;;;;3.24;81.29;98675.34;5012814;28;20057;-70
2021/12/01 06:02:58;;;;;;;3.20;1.63;;;;;;;3.23;81.29;98669.47;5013922;28;20042;-70
2021/12/01 06:05:28;;;;;;;4.00;1.77;;;;;;;3.18;81.13;98667.72;5016109;28;20547;-70
2021/12/01 06:07:57;;;;;;;2.80;1.70;;;;;;;3.17;81.98;98668.53;5012216;28;20038;-70
2021/12/01 06:10:31;;;;;;;3.25;1.98;;;;;;;3.24;81.54;98665.25;5013357;28;20518;-69
2021/12/01 06:13:01;;;;;;;3.63;1.90;;;;;;;3.29;81.39;98663.66;5014288;28;20092;-70
2021/12/01 06:15:33;;;;;;;3.88;1.70;;;;;;;3.25;81.31;98661.94;5014664;28;20478;-70
2021/12/01 06:18:02;;;;;;;3.83;2.25;;;;;;;3.22;82.15;98656.84;5012854;28;20046;-69
2021/12/01 06:20:34;;;;;;;6.57;2.50;;;;;;;3.28;82.45;98664.50;5012329;28;20132;-70
2021/12/01 06:23:03;;;;;;;10.73;5.65;;;;;;;3.31;82.16;98659.50;5013393;28;20296;-69
2021/12/01 06:25:35;;;;;;;7.47;4.00;;;;;;;3.38;81.89;98664.59;5011955;28;20062;-69
2021/12/01 06:28:05;;;;;;;6.38;3.00;;;;;;;3.26;82.27;98668.69;5012587;28;20096;-69
2021/12/01 06:30:38;;;;;;;6.72;3.13;;;;;;;3.14;82.63;98668.53;5009763;28;20034;-70
2021/12/01 06:33:09;;;;;;;5.50;2.63;;;;;;;3.27;82.93;98682.94;5013489;28;20046;-69
2021/12/01 06:35:39;;;;;;;4.85;2.10;;;;;;;3.21;82.44;98686.28;5013250;28;20100;-70
2021/12/01 06:38:08;;;;;;;4.18;2.40;;;;;;;3.17;82.88;98694.59;5007533;28;20480;-69
2021/12/01 06:40:39;;;;;;;6.25;3.08;;;;;;;3.11;82.91;98701.25;5007725;28;20062;-70
2021/12/01 06:43:08;;;;;;;8.38;4.40;;;;;;;3.11;83.01;98703.75;5008873;28;20061;-72
2021/12/01 06:45:38;;;;;;;10.73;4.30;;;;;;;3.07;83.19;98704.56;5010715;28;20502;-69
2021/12/01 06:48:08;;;;;;;8.73;4.80;;;;;;;3.11;83.03;98703.75;5010581;28;20096;-69
2021/12/01 06:50:37;;;;;;;5.72;3.17;;;;;;;3.16;82.79;98707.19;5009633;28;20174;-69
2021/12/01 06:53:06;;;;;;;5.15;2.85;;;;;;;3.27;83.17;98700.59;5011544;28;20054;-69
2021/12/01 06:55:40;;;;;;;5.40;3.17;;;;;;;3.30;83.30;98710.72;5014874;28;20046;-70
2021/12/01 06:58:10;;;;;;;6.55;3.35;;;;;;;3.38;82.83;98704.13;5010834;28;20045;-69
2021/12/01 07:00:39;;;;;;;6.00;3.20;;;;;;;3.42;82.85;98700.78;5009938;28;20050;-69
2021/12/01 07:03:09;;;;;;;5.15;2.58;;;;;;;3.51;82.97;98710.97;5009663;28;20369;-69
2021/12/01 07:05:39;;;;;;;4.03;2.35;;;;;;;3.51;82.76;98710.97;5009647;28;20388;-69
2021/12/01 07:08:08;;;;;;;4.82;2.35;;;;;;;3.59;83.41;98716.97;5013047;28;20045;-69
2021/12/01 07:10:38;;;;;;;4.10;2.42;;;;;;;3.71;83.51;98703.63;5003243;28;20117;-68
2021/12/01 07:13:08;;;;;;;;;;;;;;;3.82;82.88;98700.38;5009637;28;20479;-69
2021/12/01 07:15:41;;;;;;;5.18;2.08;;;;;;;3.81;82.92;98708.81;5005473;28;20008;-69
2021/12/01 07:18:10;;;;;;;4.65;2.28;;;;;;;3.88;82.68;98717.28;5013918;28;20399;-70
2021/12/01 07:20:44;;;;;;;5.85;2.42;;;;;;;3.91;82.58;98712.25;4994877;28;20096;-70
2021/12/01 07:23:14;;;;;;;4.10;2.10;;;;;;;3.89;82.99;98709.69;4999502;28;20048;-69
2021/12/01 07:26:01;;;;;;;4.20;2.00;;;;;;;3.97;83.14;98713.16;5002813;28;20049;-70
2021/12/01 07:28:33;;;;;;;3.92;2.42;;;;;;;3.93;83.03;98710.59;5004714;28;20038;-70
2021/12/01 07:31:03;;;;;;;5.05;2.67;;;;;;;3.91;82.58;98710.56;5011648;28;20138;-69
2021/12/01 07:33:34;;;;;;;8.02;2.50;;;;;;;3.95;83.09;98717.34;5001049;28;20120;-70
2021/12/01 07:36:04;;;;;;;4.97;2.63;;;;;;;4.01;83.16;98717.41;5002570;28;20073;-70
2021/12/01 07:38:37;;;;;;;4.38;2.38;;;;;;;4.05;83.16;98723.34;5014287;28;20056;-70
2021/12/01 07:41:13;;;;;;;8.25;4.57;;;;;;;4.00;82.70;98722.44;5005792;28;20049;-69
2021/12/01 07:43:44;;;;;;;8.32;5.00;;;;;;;4.05;82.65;98728.38;5009646;28;20120;-69
2021/12/01 07:46:16;;;;;;;10.80;6.22;;;;;;;4.15;82.54;98736.88;5009449;28;20046;-69
2021/12/01 07:48:46;;;;;;;10.55;5.95;;;;;;;4.17;82.52;98741.13;5008016;28;20044;-69
2021/12/01 07:51:15;;;;;;;8.05;5.07;;;;;;;4.23;83.15;98735.25;5007524;28;20041;-70
2021/12/01 07:53:47;;;;;;;;;;;;;;;4.19;82.56;98731.03;5008270;28;20041;-70
2021/12/01 07:56:19;;;;;;;8.10;4.13;;;;;;;4.13;82.99;98728.47;5003558;28;19922;-71
2021/12/01 07:58:50;;;;;;;11.68;5.82;;;;;;;4.18;82.39;98736.91;5001218;28;20488;-70
2021/12/01 08:01:19;;;;;;;10.02;5.43;;;;;;;4.20;82.47;98730.22;5004365;28;20496;-71
2021/12/01 08:03:48;;;;;;;;;;;;;;;4.17;82.79;98727.66;5005540;28;20373;-70
2021/12/01 08:06:17;;;;;;;8.13;3.77;;;;;;;4.24;82.91;98726.88;5008422;28;19922;-70
2021/12/01 08:08:47;;;;;;;7.38;4.45;;;;;;;4.10;83.16;98723.38;5004460;28;20038;-70
2021/12/01 08:11:19;;;;;;;6.88;3.92;;;;;;;4.06;82.82;98727.53;5001310;28;20077;-70
2021/12/01 08:13:50;;;;;;;7.63;3.72;;;;;;;4.01;83.13;98732.53;5006478;28;20054;-71
2021/12/01 08:16:23;;;;;;;6.60;3.17;;;;;;;4.00;83.57;98730.00;5008986;28;20042;-71
2021/12/01 08:18:55;;;;;;;4.35;2.70;;;;;;;3.96;83.33;98721.56;5013764;28;20045;-70
2021/12/01 08:21:27;;;;;;;7.47;3.17;;;;;;;3.80;83.79;98718.84;5013683;28;20077;-70
2021/12/01 08:24:20;;;;;;;7.55;3.65;;;;;;;3.73;83.65;98712.06;5013588;28;20046;-71
2021/12/01 08:26:52;;;;;;;6.53;3.75;;;;;;;3.70;84.60;98706.97;5013761;28;20048;-71
2021/12/01 08:29:26;;;;;;;8.38;4.40;;;;;;;3.81;84.53;98710.47;5013624;28;20125;-71
2021/12/01 08:31:59;;;;;;;11.27;5.75;;;;;;;4.00;84.87;98708.16;5014032;28;20149;-71
2021/12/01 08:34:31;;;;;;;11.90;5.75;;;;;;;4.15;84.85;98716.69;5013806;28;20396;-70
2021/12/01 08:37:01;;;;;;;8.05;4.82;;;;;;;4.23;84.41;98712.53;5013568;28;20060;-71
2021/12/01 08:39:34;;;;;;;8.07;4.00;;;;;;;4.23;84.78;98705.81;5013810;28;20060;-71
2021/12/01 08:42:06;;;;;;;7.80;4.13;;;;;;;4.10;84.48;98709.09;5013807;28;20050;-71
2021/12/01 08:44:44;;;;;;;20.98;11.15;;;;;;;4.08;85.12;98706.53;5013760;28;20511;-70
2021/12/01 08:47:19;;;;;;;23.23;12.05;;;;;;;4.24;84.74;98701.63;5013481;28;20046;-72
2021/12/01 08:49:55;;;;;;;26.63;13.30;;;;;;;4.30;85.13;98706.69;5012449;28;20077;-70
2021/12/01 08:52:27;;;;;;;18.52;10.80;;;;;;;4.32;84.53;98707.59;5013423;28;20124;-72
2021/12/01 08:55:00;;;;;;;13.45;8.35;;;;;;;4.36;85.15;98701.72;5013151;28;20057;-71
2021/12/01 08:57:29;;;;;;;11.00;7.25;;;;;;;4.44;85.17;98705.97;5013298;28;20498;-71
2021/12/01 08:59:59;;;;;;;12.75;7.57;;;;;;;4.39;85.20;98691.66;5013230;28;20070;-71
2021/12/01 09:02:29;;;;;;;16.02;8.15;;;;;;;4.46;84.79;98688.34;5013507;28;20046;-71
2021/12/01 09:04:59;;;;;;;14.18;7.93;;;;;;;4.48;84.83;98686.66;5013214;28;20050;-71
2021/12/01 09:07:28;;;;;;;11.07;6.38;;;;;;;4.54;85.13;98691.75;5013155;28;20469;-69
2021/12/01 09:10:00;;;;;;;;;;;;;;;4.62;85.01;98690.97;5013620;28;20097;-72
2021/12/01 09:12:30;;;;;;;11.65;5.95;;;;;;;4.65;85.20;98680.88;5012818;28;19922;-70
2021/12/01 09:15:03;;;;;;;9.52;5.47;;;;;;;4.66;84.83;98686.78;5013494;28;20116;-71
2021/12/01 09:17:33;;;;;;;7.60;4.50;;;;;;;4.76;84.65;98680.94;5016051;28;20496;-70
2021/12/01 09:20:03;;;;;;;8.32;4.28;;;;;;;4.87;84.64;98674.25;5016541;28;20046;-70
2021/12/01 09:22:32;;;;;;;7.15;4.13;;;;;;;4.95;84.56;98669.25;5016811;28;20461;-70
2021/12/01 09:25:02;;;;;;;6.80;3.38;;;;;;;5.02;84.68;98670.97;5016594;28;20587;-70
2021/12/01 09:27:31;;;;;;;6.07;3.65;;;;;;;5.08;84.71;98656.69;5016850;28;20041;-71
2021/12/01 09:30:01;;;;;;;6.63;3.60;;;;;;;5.23;84.74;98655.91;5016321;28;20042;-72
2021/12/01 09:32:37;;;;;;;5.93;3.35;;;;;;;5.32;84.69;98661.84;5016445;28;20056;-70
2021/12/01 09:35:08;;;;;;;7.90;4.10;;;;;;;5.41;84.36;98661.88;5016255;28;20053;-70
2021/12/01 09:37:38;;;;;;;6.55;3.90;;;;;;;5.45;84.18;98661.91;5016371;28;20054;-70
2021/12/01 09:40:13;;;;;;;6.72;3.72;;;;;;;5.54;84.05;98659.38;5016468;28;20057;-70
2021/12/01 09:42:44;;;;;;;6.70;3.45;;;;;;;5.57;84.01;98649.25;5014816;28;20049;-70
2021/12/01 09:45:15;;;;;;;6.38;3.85;;;;;;;5.65;84.11;98645.06;5016214;28;20042;-70
2021/12/01 09:47:46;;;;;;;7.13;3.42;;;;;;;5.69;84.03;98649.28;5016109;28;20080;-70
2021/12/01 09:50:16;;;;;;;7.55;3.63;;;;;;;5.72;83.96;98641.69;5015762;28;20050;-70
2021/12/01 09:52:45;;;;;;;6.32;3.17;;;;;;;5.67;83.65;98640.84;5016030;28;20186;-69
2021/12/01 09:55:16;;;;;;;4.97;3.03;;;;;;;5.66;83.65;98634.09;5015991;28;20133;-70
2021/12/01 09:57:57;;;;;;;6.45;3.22;;;;;;;5.65;83.47;98629.88;5016119;28;20081;-70
2021/12/01 10:00:27;;;;;;;7.63;3.22;;;;;;;5.69;83.70;98619.75;5015931;28;20049;-70
2021/12/01 10:02:58;;;;;;;;;;;;;;;5.77;83.68;98619.75;5016244;28;20096;-70
2021/12/01 10:05:49;;;;;;;7.13;3.60;;;;;;;5.78;83.61;98622.28;5015765;28;20351;-71
2021/12/01 10:08:20;;;;;;;9.77;4.80;;;;;;;5.92;84.08;98604.63;5015996;28;20447;-71
2021/12/01 10:10:51;;;;;;;9.30;4.53;;;;;;;5.97;83.57;98605.47;5015617;28;20053;-71
2021/12/01 10:13:28;;;;;;;8.30;3.90;;;;;;;6.02;83.93;98606.31;5015639;28;20126;-70
2021/12/01 10:16:04;;;;;;;5.47;3.38;;;;;;;6.07;83.69;98609.66;5015767;28;20395;-69
2021/12/01 10:18:40;;;;;;;6.20;3.28;;;;;;;6.14;84.07;98611.38;5015601;28;20050;-70
2021/12/01 10:21:16;;;;;;;6.93;4.45;;;;;;;6.11;83.94;98621.50;5015507;28;20124;-69
2021/12/01 10:23:48;;;;;;;11.32;4.65;;;;;;;6.04;83.68;98613.09;5015427;28;20049;-70
2021/12/01 10:26:21;;;;;;;7.47;4.10;;;;;;;5.92;83.45;98614.75;5015381;28;20496;-70
2021/12/01 10:28:54;;;;;;;6.88;3.78;;;;;;;5.88;83.81;98615.56;5015125;28;20546;-70
2021/12/01 10:31:38;;;;;;;6.97;3.70;;;;;;;5.84;83.87;98612.22;5015283;28;20048;-71
2021/12/01 10:34:29;;;;;;;4.70;2.63;;;;;;;5.79;83.56;98613.00;5015084;28;20084;-71
2021/12/01 10:37:15;;;;;;;4.90;2.40;;;;;;;5.86;83.93;98609.69;5015608;28;20050;-70
2021/12/01 10:39:46;;;;;;;4.75;2.47;;;;;;;5.82;83.85;98592.78;5015445;28;20562;-70
2021/12/01 10:42:19;;;;;;;5.53;3.08;;;;;;;5.88;83.75;98583.50;5015120;28;20082;-69
2021/12/01 10:44:57;;;;;;;6.32;2.72;;;;;;;5.94;83.93;98582.69;5015039;28;20058;-68
2021/12/01 10:47:40;;;;;;;6.13;2.80;;;;;;;6.01;83.71;98579.31;5015047;28;20045;-69
2021/12/01 10:50:13;;;;;;;5.55;3.08;;;;;;;6.01;83.80;98577.63;5014812;28;20080;-68
2021/12/01 10:52:45;;;;;;;5.95;3.00;;;;;;;5.98;84.09;98566.63;5014917;28;20057;-68
2021/12/01 10:55:17;;;;;;;5.15;2.58;;;;;;;5.93;83.95;98561.56;5015089;28;20480;-68
2021/12/01 10:57:54;;;;;;;5.43;2.88;;;;;;;5.91;84.46;98557.34;5015045;28;20510;-67
2021/12/01 11:00:30;;;;;;;7.13;3.15;;;;;;;5.94;84.32;98558.22;5014962;28;20046;-68
2021/12/01 11:03:07;;;;;;;5.82;3.03;;;;;;;5.92;84.33;98543.88;5015125;28;20049;-67
2021/12/01 11:05:43;;;;;;;4.55;2.67;;;;;;;6.01;84.87;98544.69;5015094;28;20050;-68
2021/12/01 11:08:17;;;;;;;7.45;3.20;;;;;;;6.03;84.77;98542.16;5014368;28;20499;-67
2021/12/01 11:10:51;;;;;;;5.88;3.47;;;;;;;6.08;84.79;98538.78;5014685;28;20045;-67
2021/12/01 11:13:22;;;;;;;6.75;3.53;;;;;;;6.17;85.21;98532.84;5014568;28;20443;-68
2021/12/01 11:15:56;;;;;;;6.13;3.50;;;;;;;6.20;85.38;98522.72;5014471;28;20050;-68
2021/12/01 11:18:47;;;;;;;7.78;4.50;;;;;;;6.18;85.28;98519.34;5014796;28;20404;-68
2021/12/01 11:21:27;;;;;;;6.88;3.65;;;;;;;6.19;84.84;98512.59;5014561;28;20066;-68
2021/12/01 11:24:01;;;;;;;7.70;4.07;;;;;;;6.18;85.39;98503.28;5014509;28;20080;-68
2021/12/01 11:26:33;;;;;;;10.68;5.45;;;;;;;6.19;85.49;98503.28;5014578;28;20053;-68
2021/12/01 11:29:08;;;;;;;16.67;6.38;;;;;;;6.20;86.04;98494.00;5014931;28;20042;-68
2021/12/01 11:31:44;;;;;;;14.63;6.82;;;;;;;6.23;85.66;98494.00;5014669;28;20404;-68
2021/12/01 11:34:17;;;;;;;9.95;5.30;;;;;;;6.32;85.80;98489.75;5014533;28;20066;-69
2021/12/01 11:36:51;;;;;;;9.93;4.90;;;;;;;6.45;85.85;98476.19;5014608;28;20045;-69
2021/12/01 11:39:27;;;;;;;8.35;4.90;;;;;;;6.47;86.22;98473.66;5013864;28;20050;-69
2021/12/01 11:41:59;;;;;;;7.38;4.47;;;;;;;6.57;86.36;98471.09;5014325;28;20053;-69
2021/12/01 11:44:32;;;;;;;8.07;4.60;;;;;;;6.58;85.90;98462.63;5014589;28;20073;-69
2021/12/01 11:47:05;;;;;;;6.70;3.97;;;;;;;6.55;86.19;98459.25;5014481;28;20064;-69
2021/12/01 11:49:35;;;;;;;8.73;4.55;;;;;;;6.51;86.12;98455.88;4974431;28;20054;-69
2021/12/01 11:52:12;;;;;;;;;;;;;;;6.52;86.52;98461.81;5014853;28;20458;-69
2021/12/01 11:54:46;;;;;;;6.90;4.28;;;;;;;6.55;86.17;98467.69;5013939;28;20381;-69
2021/12/01 11:57:22;;;;;;;8.40;4.45;;;;;;;6.54;86.29;98460.94;5014270;28;20519;-69
2021/12/01 11:59:54;;;;;;;10.38;5.55;;;;;;;6.50;86.71;98449.13;5013963;28;20042;-70
2021/12/01 12:02:25;;;;;;;7.68;4.20;;;;;;;6.46;86.24;98442.41;5013896;28;20137;-70
2021/12/01 12:04:55;;;;;;;7.85;4.20;;;;;;;6.43;86.54;98450.00;5013934;28;20562;-70
2021/12/01 12:07:33;;;;;;;8.77;4.13;;;;;;;6.43;86.95;98432.25;5013837;28;20075;-69
2021/12/01 12:10:23;;;;;;;7.53;4.07;;;;;;;6.51;86.65;98440.69;5013894;28;20070;-70
2021/12/01 12:13:02;;;;;;;7.55;4.20;;;;;;;6.50;87.30;98426.31;5013805;28;20060;-70